Terminal Aerodrome Forecast
Issued by NWS

Home | Current Version | Previous Version | Text Only | Print | Product List | Glossary On
Versions: 1 2 3 4 5 6 7 8 9 10 11 12 13 14
360
FTUS45 KRIW 231121
TAFRKS
TAF
KRKS 231121Z 2312/2412 22009KT P6SM SCT100 BKN150
     FM231800 25009KT P6SM VCSH SCT080 BKN200
     FM232000 28014G20KT P6SM VCTS SCT080CB BKN150
     FM240200 26011KT P6SM VCSH SCT100 BKN150
     FM240400 22007KT P6SM SCT150=

USA.gov is the U.S. government's official web portal to all federal, state and local government web resources and services.